Time;durP1;ratioP1;P1;durP2;ratioP2;P2;SDS_P1;SDS_P2;PMS_P1;PMS_P2;Temp;Humidity;BMP_temperature;BMP_pressure;BME280_temperature;BME280_humidity;BME280_pressure;Samples;Min_cycle;Max_cycle;Signal;HPM_P1;HPM_P2
2023/10/16 00:00:29;;;;;;;0.60;0.60;;;;;;;4.32;87.10;97482.41;29395;370;63009;-57
2023/10/16 00:01:09;;;;;;;0.57;0.57;;;;;;;4.32;87.76;97485.09;29395;305;63005;-58
2023/10/16 00:01:40;;;;;;;0.60;0.60;;;;;;;4.33;88.15;97481.34;29417;230;63009;-58
2023/10/16 00:02:12;;;;;;;0.60;0.60;;;;;;;4.35;88.23;97484.63;29395;258;63004;-58
2023/10/16 00:02:43;;;;;;;0.60;0.60;;;;;;;4.35;88.35;97484.63;29395;210;63009;-58
2023/10/16 00:03:15;;;;;;;0.50;0.50;;;;;;;4.35;88.17;97487.28;29395;334;63004;-59
2023/10/16 00:03:49;;;;;;;0.60;0.60;;;;;;;4.33;88.15;97487.53;29394;218;64013;-58
2023/10/16 00:04:21;;;;;;;0.60;0.60;;;;;;;4.33;88.14;97492.09;29395;222;63004;-65
2023/10/16 00:04:52;;;;;;;0.60;0.60;;;;;;;4.31;88.48;97484.28;29395;211;63012;-58
2023/10/16 00:05:23;;;;;;;0.60;0.60;;;;;;;4.30;88.60;97485.31;29395;249;63004;-58
2023/10/16 00:05:55;;;;;;;0.60;0.60;;;;;;;4.27;88.49;97488.47;29395;213;63015;-58
2023/10/16 00:06:27;;;;;;;0.60;0.60;;;;;;;4.28;88.78;97483.94;29394;204;64009;-58
2023/10/16 00:07:00;;;;;;;0.60;0.60;;;;;;;4.28;89.04;97478.56;29395;211;63009;-58
2023/10/16 00:07:33;;;;;;;0.60;0.60;;;;;;;4.23;88.09;97475.75;29395;240;63005;-58
2023/10/16 00:08:06;;;;;;;0.60;0.60;;;;;;;4.22;88.29;97490.25;29395;314;63022;-58
2023/10/16 00:08:47;;;;;;;0.60;0.60;;;;;;;4.23;88.96;97486.50;29395;214;63005;-58
2023/10/16 00:09:22;;;;;;;0.60;0.60;;;;;;;4.24;88.92;97485.44;29395;236;63024;-58
2023/10/16 00:09:56;;;;;;;0.60;0.60;;;;;;;4.24;88.64;97477.38;29395;305;63015;-58
2023/10/16 00:10:27;;;;;;;0.60;0.60;;;;;;;4.22;88.69;97476.81;29395;221;63009;-58
2023/10/16 00:11:03;;;;;;;0.60;0.60;;;;;;;4.17;88.14;97482.06;29395;207;63004;-57
2023/10/16 00:11:37;;;;;;;0.50;0.50;;;;;;;4.14;88.45;97478.03;29394;225;64013;-58
2023/10/16 00:12:09;;;;;;;0.60;0.60;;;;;;;4.13;88.77;97475.56;29394;204;64009;-58
2023/10/16 00:12:42;;;;;;;0.60;0.60;;;;;;;4.10;89.33;97476.03;29395;227;63008;-59
2023/10/16 00:13:18;;;;;;;0.60;0.60;;;;;;;4.06;89.64;97478.37;29395;207;63016;-59
2023/10/16 00:13:51;;;;;;;0.60;0.60;;;;;;;3.99;90.02;97478.50;29395;204;63009;-58
2023/10/16 00:14:27;;;;;;;0.50;0.50;;;;;;;3.98;90.64;97476.06;29395;197;63005;-57
2023/10/16 00:14:59;;;;;;;0.60;0.60;;;;;;;3.95;90.04;97474.66;29395;204;63009;-58
2023/10/16 00:15:40;;;;;;;0.60;0.60;;;;;;;3.93;89.95;97466.03;29395;262;63005;-57
2023/10/16 00:16:15;;;;;;;0.75;0.75;;;;;;;3.96;90.14;97470.94;29417;204;63009;-58
2023/10/16 00:16:46;;;;;;;0.55;0.55;;;;;;;4.01;90.07;97467.53;29394;216;64009;-58
2023/10/16 00:17:21;;;;;;;0.60;0.60;;;;;;;4.06;90.07;97467.66;29394;209;64013;-58
2023/10/16 00:17:56;;;;;;;0.60;0.60;;;;;;;4.08;89.94;97470.91;29395;212;63004;-58
2023/10/16 00:18:35;;;;;;;0.60;0.60;;;;;;;4.11;89.69;97472.31;29395;226;63009;-57
2023/10/16 00:19:09;;;;;;;0.60;0.60;;;;;;;4.13;88.80;97476.38;29395;202;63004;-57
2023/10/16 00:19:44;;;;;;;0.60;0.60;;;;;;;4.15;88.37;97468.09;29395;326;63009;-57
2023/10/16 00:20:16;;;;;;;0.50;0.50;;;;;;;4.16;88.34;97464.34;29394;198;64008;-58
2023/10/16 00:20:48;;;;;;;0.60;0.60;;;;;;;4.15;88.65;97463.53;29395;196;63009;-58
2023/10/16 00:21:19;;;;;;;0.60;0.60;;;;;;;4.12;88.90;97469.38;29395;219;63005;-58
2023/10/16 00:21:52;;;;;;;0.70;0.70;;;;;;;4.10;89.43;97468.81;29395;225;63009;-58
2023/10/16 00:22:25;;;;;;;0.60;0.60;;;;;;;4.08;89.16;97468.22;29394;199;64009;-58
2023/10/16 00:24:07;;;;;;;0.60;0.60;;;;;;;4.04;89.89;97469.75;88178;196;64004;-59
2023/10/16 00:24:45;;;;;;;0.60;0.60;;;;;;;4.03;89.70;97470.81;29394;202;64009;-58
2023/10/16 00:25:24;;;;;;;1.02;1.02;;;;;;;4.06;90.13;97472.19;29395;256;63005;-58
2023/10/16 00:26:00;;;;;;;0.60;0.60;;;;;;;4.06;90.31;97469.50;29395;225;63009;-58
2023/10/16 00:26:31;;;;;;;0.60;0.60;;;;;;;4.06;90.25;97472.19;29395;242;63005;-57
2023/10/16 00:27:04;;;;;;;0.60;0.60;;;;;;;4.03;89.90;97460.88;29394;301;64013;-58
2023/10/16 00:27:37;;;;;;;0.60;0.60;;;;;;;4.03;89.71;97466.25;29395;197;63004;-58
2023/10/16 00:28:10;;;;;;;0.50;0.50;;;;;;;4.08;90.42;97472.78;29394;221;64013;-58
2023/10/16 00:28:45;;;;;;;0.60;0.60;;;;;;;4.12;90.42;97465.88;29395;213;63004;-59
2023/10/16 00:29:22;;;;;;;0.60;0.60;;;;;;;4.16;90.91;97469.72;29395;264;63008;-58
2023/10/16 00:29:55;;;;;;;0.60;0.60;;;;;;;4.18;90.84;97467.59;29395;312;63004;-58
2023/10/16 00:30:27;;;;;;;0.60;0.60;;;;;;;4.19;90.47;97464.66;29395;231;63009;-58
2023/10/16 00:30:58;;;;;;;0.60;0.60;;;;;;;4.20;90.27;97468.19;29394;234;64009;-58
2023/10/16 00:31:32;;;;;;;0.60;0.60;;;;;;;4.20;89.76;97460.12;29395;212;63009;-58
2023/10/16 00:32:07;;;;;;;0.60;0.60;;;;;;;4.19;89.62;97469.22;29395;204;63005;-58
2023/10/16 00:32:38;;;;;;;0.60;0.60;;;;;;;4.19;88.93;97463.84;29394;216;64013;-58
2023/10/16 00:33:10;;;;;;;0.60;0.60;;;;;;;4.18;88.79;97457.66;29395;235;63005;-57
2023/10/16 00:33:42;;;;;;;0.60;0.60;;;;;;;4.21;89.06;97467.94;29395;210;63009;-58
2023/10/16 00:34:19;;;;;;;0.60;0.60;;;;;;;4.23;88.55;97465.00;29395;203;63017;-58
2023/10/16 00:34:52;;;;;;;0.60;0.60;;;;;;;4.21;88.36;97467.94;29395;204;63009;-58
2023/10/16 00:35:27;;;;;;;0.60;0.60;;;;;;;4.21;88.02;97467.94;29395;315;63004;-57
2023/10/16 00:36:02;;;;;;;0.60;0.60;;;;;;;4.21;87.85;97461.75;29395;202;63009;-58
2023/10/16 00:36:34;;;;;;;1.15;1.15;;;;;;;4.17;87.81;97461.41;29395;202;63016;-58
2023/10/16 00:37:07;;;;;;;0.60;0.60;;;;;;;4.15;88.22;97465.41;29394;238;64013;-58
2023/10/16 00:37:38;;;;;;;0.60;0.60;;;;;;;4.12;88.51;97463.19;29394;314;64008;-58
2023/10/16 00:38:13;;;;;;;0.60;0.60;;;;;;;4.10;89.08;97460.75;29395;209;63009;-58
2023/10/16 00:38:51;;;;;;;0.60;0.60;;;;;;;4.04;88.86;97457.13;29395;233;63005;-58
2023/10/16 00:39:28;;;;;;;0.55;0.55;;;;;;;4.05;89.11;97468.69;29395;206;63009;-57
2023/10/16 00:40:01;;;;;;;0.60;0.60;;;;;;;4.06;89.49;97453.41;29395;348;63005;-58
2023/10/16 00:40:33;;;;;;;0.60;0.60;;;;;;;4.09;89.85;97458.31;29394;224;64013;-58
2023/10/16 00:41:53;;;;;;;0.60;0.60;;;;;;;4.10;89.65;97457.25;29395;233;63009;-58
2023/10/16 00:42:24;;;;;;;0.60;0.60;;;;;;;4.11;89.57;97456.19;29395;202;63004;-58
2023/10/16 00:42:56;;;;;;;0.60;0.60;;;;;;;4.10;89.12;97446.50;29396;198;63009;-58
2023/10/16 00:43:28;;;;;;;0.60;0.60;;;;;;;4.12;88.75;97449.78;29395;202;63004;-57
2023/10/16 00:43:59;;;;;;;0.55;0.55;;;;;;;4.11;88.96;97450.81;29395;235;63009;-57
2023/10/16 00:44:37;;;;;;;0.60;0.60;;;;;;;4.07;88.60;97449.66;29395;275;63004;-58
2023/10/16 00:45:09;;;;;;;0.60;0.60;;;;;;;4.04;88.56;97445.59;29394;211;64013;-59
2023/10/16 00:45:59;;;;;;;0.60;0.60;;;;;;;3.98;88.51;97447.34;29395;203;63005;-58
2023/10/16 00:46:37;;;;;;;0.60;0.60;;;;;;;3.91;89.77;97448.53;29395;215;63009;-57
2023/10/16 00:47:11;;;;;;;0.60;0.60;;;;;;;3.82;90.27;97456.13;29394;261;64005;-58
2023/10/16 00:47:43;;;;;;;0.60;0.60;;;;;;;3.79;91.04;97453.13;29395;298;63009;-58
2023/10/16 00:48:24;;;;;;;0.65;0.65;;;;;;;3.72;90.97;97447.87;29395;197;63005;-59
2023/10/16 00:48:58;;;;;;;0.60;0.60;;;;;;;3.66;91.54;97444.25;29394;202;64013;-58
2023/10/16 00:49:30;;;;;;;0.60;0.60;;;;;;;3.64;91.77;97448.22;29395;198;63004;-57
2023/10/16 00:50:03;;;;;;;0.60;0.60;;;;;;;3.63;92.23;97443.91;29395;208;63009;-58
2023/10/16 00:50:35;;;;;;;0.60;0.60;;;;;;;3.62;92.07;97447.63;29394;368;64009;-57
2023/10/16 00:51:09;;;;;;;0.60;0.60;;;;;;;3.63;92.28;97449.25;29395;207;63009;-58
2023/10/16 00:51:41;;;;;;;0.60;0.60;;;;;;;3.62;92.03;97445.75;29395;200;63004;-58
2023/10/16 00:52:14;;;;;;;0.60;0.60;;;;;;;3.62;92.30;97445.75;29395;245;63008;-58
2023/10/16 00:52:46;;;;;;;0.60;0.60;;;;;;;3.63;92.33;97443.91;29395;202;63005;-57
2023/10/16 00:53:23;;;;;;;0.60;0.60;;;;;;;3.63;92.54;97441.22;29395;257;63009;-58
2023/10/16 00:53:55;;;;;;;0.60;0.60;;;;;;;3.64;92.25;97440.16;29395;199;63005;-58
2023/10/16 00:54:31;;;;;;;0.60;0.60;;;;;;;3.64;92.35;97450.91;29395;402;63009;-58
2023/10/16 00:55:03;;;;;;;0.60;0.60;;;;;;;3.64;92.07;97442.84;29395;245;63005;-58
2023/10/16 00:55:35;;;;;;;1.05;1.05;;;;;;;3.65;92.19;97441.81;29394;205;64013;-58
2023/10/16 00:56:12;;;;;;;0.60;0.60;;;;;;;3.65;92.10;97441.81;29395;228;63014;-58
2023/10/16 00:56:46;;;;;;;0.60;0.60;;;;;;;3.65;92.48;97436.44;29395;294;63009;-58
2023/10/16 00:57:17;;;;;;;0.50;0.50;;;;;;;3.66;92.40;97438.06;29395;220;63004;-58
2023/10/16 00:57:49;;;;;;;0.57;0.57;;;;;;;3.65;92.29;97434.56;29395;343;63009;-59
2023/10/16 00:58:21;;;;;;;0.60;0.60;;;;;;;3.65;92.38;97431.06;29395;208;63004;-59
2023/10/16 00:58:52;;;;;;;0.60;0.60;;;;;;;3.66;92.58;97432.69;29395;284;63009;-57
2023/10/16 00:59:24;;;;;;;0.60;0.60;;;;;;;3.66;92.57;97433.50;29395;210;63004;-58
2023/10/16 00:59:58;;;;;;;0.60;0.60;;;;;;;3.66;92.52;97433.50;29395;228;63008;-58
2023/10/16 01:00:31;;;;;;;0.60;0.60;;;;;;;3.66;92.73;97422.78;29395;229;63005;-57
2023/10/16 01:01:09;;;;;;;0.60;0.60;;;;;;;3.64;92.88;97430.25;29394;199;64014;-58
2023/10/16 01:01:43;;;;;;;0.50;0.50;;;;;;;3.64;93.92;97429.44;29395;349;63005;-58
2023/10/16 01:02:15;;;;;;;0.60;0.60;;;;;;;3.63;94.35;97433.97;29395;357;63009;-58
2023/10/16 01:02:47;;;;;;;0.60;0.60;;;;;;;3.61;94.84;97428.03;29394;202;64009;-58
2023/10/16 01:03:20;;;;;;;0.60;0.60;;;;;;;3.58;94.81;97428.50;29395;202;63009;-58
2023/10/16 01:03:57;;;;;;;0.60;0.60;;;;;;;3.58;95.02;97430.38;29395;203;63017;-58
2023/10/16 01:04:29;;;;;;;0.60;0.60;;;;;;;3.54;95.39;97434.56;29395;214;63009;-58
2023/10/16 01:05:01;;;;;;;0.60;0.60;;;;;;;3.53;95.12;97432.94;29395;261;63004;-58
2023/10/16 01:05:33;;;;;;;0.60;0.60;;;;;;;3.51;95.52;97421.62;29395;236;63009;-58
2023/10/16 01:06:09;;;;;;;0.60;0.60;;;;;;;3.51;95.45;97429.66;29395;205;63004;-58
2023/10/16 01:06:46;;;;;;;0.60;0.60;;;;;;;3.51;95.37;97429.66;29416;199;64013;-57
2023/10/16 01:07:19;;;;;;;0.60;0.60;;;;;;;3.49;95.44;97426.41;29394;346;64008;-58
2023/10/16 01:07:51;;;;;;;0.60;0.60;;;;;;;3.48;95.45;97419.41;29395;254;63008;-58
2023/10/16 01:08:22;;;;;;;0.60;0.60;;;;;;;3.50;95.12;97428.03;29395;210;63011;-58
2023/10/16 01:08:55;;;;;;;0.50;0.50;;;;;;;3.49;95.37;97429.09;29395;295;63009;-58
2023/10/16 01:09:33;;;;;;;0.60;0.60;;;;;;;3.50;94.89;97428.03;29395;270;63005;-58
2023/10/16 01:10:10;;;;;;;0.60;0.60;;;;;;;3.52;94.82;97429.44;29395;245;63009;-58
2023/10/16 01:10:43;;;;;;;0.50;0.50;;;;;;;3.52;94.91;97421.38;29395;202;63005;-58
2023/10/16 01:11:18;;;;;;;0.60;0.60;;;;;;;3.55;94.73;97417.41;29395;267;63009;-58
2023/10/16 01:11:51;;;;;;;0.60;0.60;;;;;;;3.56;94.54;97421.72;29395;218;63004;-57
2023/10/16 01:12:22;;;;;;;0.55;0.55;;;;;;;3.56;94.49;97421.72;29394;275;64013;-58
2023/10/16 01:12:56;;;;;;;0.60;0.60;;;;;;;3.57;94.40;97418.00;29395;197;63004;-59
2023/10/16 01:13:28;;;;;;;0.60;0.60;;;;;;;3.57;94.41;97424.19;29395;196;63009;-58
2023/10/16 01:13:59;;;;;;;0.60;0.60;;;;;;;3.61;94.41;97424.53;29395;214;63004;-57
2023/10/16 01:14:30;;;;;;;0.60;0.60;;;;;;;3.64;94.80;97424.06;29395;213;63008;-58
2023/10/16 01:15:04;;;;;;;0.60;0.60;;;;;;;3.68;94.42;97419.88;29395;294;63005;-58
2023/10/16 01:15:43;;;;;;;0.60;0.60;;;;;;;3.74;95.00;97426.97;29395;323;63009;-58
2023/10/16 01:16:16;;;;;;;0.60;0.60;;;;;;;3.79;94.25;97421.72;29395;224;63005;-58
2023/10/16 01:16:49;;;;;;;0.60;0.60;;;;;;;3.80;93.80;97426.03;29395;237;63009;-57
2023/10/16 01:17:29;;;;;;;0.60;0.60;;;;;;;3.79;93.12;97420.91;29395;203;63005;-58
2023/10/16 01:18:00;;;;;;;0.60;0.60;;;;;;;3.78;93.21;97425.47;29416;252;64013;-58
2023/10/16 01:18:31;;;;;;;2.28;1.70;;;;;;;3.80;93.24;97417.97;29395;222;63005;-58
2023/10/16 01:19:06;;;;;;;0.60;0.60;;;;;;;3.81;93.20;97419.59;29395;196;63009;-58
2023/10/16 01:19:41;;;;;;;0.50;0.50;;;;;;;3.81;93.57;97414.22;29395;226;63004;-58
2023/10/16 01:20:18;;;;;;;0.60;0.60;;;;;;;3.81;93.32;97414.22;29394;312;64013;-58
2023/10/16 01:20:51;;;;;;;0.60;0.60;;;;;;;3.80;93.00;97412.63;29395;254;63004;-58
2023/10/16 01:21:23;;;;;;;0.60;0.60;;;;;;;3.80;93.29;97415.31;29395;226;63008;-58
2023/10/16 01:21:58;;;;;;;0.52;0.52;;;;;;;3.80;93.43;97411.81;29395;197;63004;-58
2023/10/16 01:22:30;;;;;;;0.57;0.57;;;;;;;3.80;92.96;97420.66;29395;197;63009;-58
2023/10/16 01:23:04;;;;;;;0.60;0.60;;;;;;;3.76;93.12;97411.44;29395;235;63005;-66
2023/10/16 01:23:35;;;;;;;0.52;0.52;;;;;;;3.75;93.21;97412.50;29395;370;63009;-58
2023/10/16 01:24:13;;;;;;;0.60;0.60;;;;;;;3.74;92.96;97416.25;29395;212;63005;-59
2023/10/16 01:24:45;;;;;;;0.60;0.60;;;;;;;3.73;92.99;97409.25;29395;236;63009;-58
2023/10/16 01:25:17;;;;;;;0.60;0.60;;;;;;;3.71;93.06;97414.03;29394;214;64009;-58
2023/10/16 01:25:49;;;;;;;0.60;0.60;;;;;;;3.72;93.12;97412.97;29395;210;63015;-58
2023/10/16 01:26:21;;;;;;;0.60;0.60;;;;;;;3.72;93.07;97404.91;29395;303;63004;-58
2023/10/16 01:26:59;;;;;;;0.60;0.60;;;;;;;3.72;93.34;97412.16;29395;196;63009;-58
2023/10/16 01:27:30;;;;;;;0.60;0.60;;;;;;;3.72;93.01;97414.84;29395;222;63004;-58
2023/10/16 01:28:03;;;;;;;0.60;0.60;;;;;;;3.70;92.84;97407.03;29395;301;63009;-58
2023/10/16 01:28:35;;;;;;;0.60;0.60;;;;;;;3.71;93.14;97414.03;29395;254;63004;-58
2023/10/16 01:29:11;;;;;;;0.60;0.60;;;;;;;3.69;93.15;97406.22;29395;226;63008;-57
2023/10/16 01:29:42;;;;;;;0.60;0.60;;;;;;;3.68;93.32;97414.50;29395;197;63005;-58
2023/10/16 01:30:17;;;;;;;0.60;0.60;;;;;;;3.68;93.34;97415.31;29395;219;63009;-58
2023/10/16 01:30:52;;;;;;;0.50;0.50;;;;;;;3.67;93.19;97412.88;29394;203;64009;-58
2023/10/16 01:31:25;;;;;;;0.60;0.60;;;;;;;3.66;93.42;97411.22;29395;210;63009;-58
2023/10/16 01:31:56;;;;;;;0.60;0.60;;;;;;;3.66;93.52;97405.88;29395;226;63005;-58
2023/10/16 01:32:27;;;;;;;0.60;0.60;;;;;;;3.66;93.79;97405.88;29395;339;63009;-58
2023/10/16 01:32:59;;;;;;;0.60;0.60;;;;;;;3.66;93.76;97411.22;29394;226;63999;-58
2023/10/16 01:33:31;;;;;;;0.60;0.60;;;;;;;3.65;93.90;97409.59;29395;196;63009;-58
2023/10/16 01:34:04;;;;;;;0.60;0.60;;;;;;;3.64;93.94;97413.34;29395;220;63004;-59
2023/10/16 01:34:35;;;;;;;0.60;0.60;;;;;;;3.64;93.95;97408.78;29395;206;63009;-58
2023/10/16 01:35:10;;;;;;;0.60;0.60;;;;;;;3.63;93.90;97411.69;29395;238;63004;-58
2023/10/16 01:35:41;;;;;;;0.60;0.60;;;;;;;3.61;93.71;97405.75;29394;259;64013;-59
2023/10/16 01:36:14;;;;;;;0.60;0.60;;;;;;;3.57;93.66;97404.59;29395;371;63004;-58
2023/10/16 01:36:45;;;;;;;0.60;0.60;;;;;;;3.57;93.95;97401.91;29395;218;63008;-58
2023/10/16 01:37:18;;;;;;;0.60;0.60;;;;;;;3.57;94.08;97402.72;29395;274;63018;-57
2023/10/16 01:37:49;;;;;;;0.60;0.60;;;;;;;3.58;94.26;97403.53;29395;280;63024;-58
2023/10/16 01:38:24;;;;;;;0.60;0.60;;;;;;;3.60;94.15;97412.16;29394;211;64009;-57
2023/10/16 01:38:59;;;;;;;0.60;0.60;;;;;;;3.62;94.54;97404.69;29395;218;63009;-58
2023/10/16 01:40:25;;;;;;;0.60;0.60;;;;;;;3.66;94.12;97405.88;29417;237;63009;-58
2023/10/16 01:41:13;;;;;;;0.60;0.60;;;;;;;3.66;93.71;97400.50;29395;352;63013;-58
2023/10/16 01:41:46;;;;;;;0.60;0.60;;;;;;;3.64;93.88;97399.91;29395;227;63009;-58
2023/10/16 01:42:18;;;;;;;0.60;0.60;;;;;;;3.62;93.31;97404.69;29395;236;63004;-58
2023/10/16 01:42:54;;;;;;;0.60;0.60;;;;;;;3.60;93.98;97404.94;29395;206;63009;-58
2023/10/16 01:43:25;;;;;;;0.60;0.60;;;;;;;3.57;93.68;97401.91;29394;344;64009;-58
2023/10/16 01:43:59;;;;;;;0.60;0.60;;;;;;;3.55;93.69;97410.19;29395;253;63014;-58
2023/10/16 01:44:30;;;;;;;0.60;0.60;;;;;;;3.50;94.09;97406.56;29395;198;63004;-58
2023/10/16 01:45:04;;;;;;;0.60;0.60;;;;;;;3.48;94.68;97408.66;29395;197;63009;-58
2023/10/16 01:45:39;;;;;;;0.60;0.60;;;;;;;3.47;94.65;97407.84;29395;233;63011;-58
2023/10/16 01:46:12;;;;;;;0.60;0.60;;;;;;;3.49;95.26;97410.31;29395;317;63018;-58
2023/10/16 01:46:47;;;;;;;0.60;0.60;;;;;;;3.50;94.87;97411.94;29395;322;63005;-57
2023/10/16 01:47:19;;;;;;;0.60;0.60;;;;;;;3.49;94.72;97404.94;29395;315;63009;-58
2023/10/16 01:47:50;;;;;;;0.60;0.60;;;;;;;3.50;94.78;97411.94;29395;214;63015;-58
2023/10/16 01:48:22;;;;;;;0.60;0.60;;;;;;;3.48;94.26;97409.50;29395;214;63009;-58
2023/10/16 01:48:55;;;;;;;0.60;0.60;;;;;;;3.46;94.29;97405.44;29394;202;64009;-58
2023/10/16 01:49:26;;;;;;;0.60;0.60;;;;;;;3.43;94.78;97408.59;29395;210;63009;-58
2023/10/16 01:49:58;;;;;;;0.60;0.60;;;;;;;3.43;94.59;97400.53;29395;248;63004;-58
2023/10/16 01:50:30;;;;;;;0.60;0.60;;;;;;;3.39;94.86;97397.50;29395;236;63009;-58
2023/10/16 01:51:01;;;;;;;0.60;0.60;;;;;;;3.37;94.94;97405.78;29395;278;63004;-58
2023/10/16 01:51:35;;;;;;;0.60;0.60;;;;;;;3.36;95.16;97406.84;29394;363;64013;-58
2023/10/16 01:52:10;;;;;;;0.60;0.60;;;;;;;3.36;94.88;97406.03;29395;244;63004;-58
2023/10/16 01:52:42;;;;;;;0.60;0.60;;;;;;;3.34;95.02;97400.88;29395;239;63023;-58
2023/10/16 01:53:15;;;;;;;0.60;0.60;;;;;;;3.32;94.96;97402.16;29395;222;63005;-58
2023/10/16 01:53:49;;;;;;;0.70;0.70;;;;;;;3.28;94.62;97407.19;29395;212;63009;-58
2023/10/16 01:54:22;;;;;;;0.60;0.60;;;;;;;3.25;94.90;97402.28;29395;218;63005;-58
2023/10/16 01:54:57;;;;;;;0.55;0.55;;;;;;;3.24;95.20;97400.66;29395;233;63009;-58
2023/10/16 01:55:28;;;;;;;0.60;0.60;;;;;;;3.27;95.42;97408.22;29395;203;63005;-58
2023/10/16 01:56:04;;;;;;;0.60;0.60;;;;;;;3.30;95.92;97402.41;29394;208;64013;-58
2023/10/16 01:56:36;;;;;;;0.60;0.60;;;;;;;3.34;95.77;97408.94;29395;213;63004;-66
2023/10/16 01:57:10;;;;;;;0.55;0.55;;;;;;;3.37;96.20;97404.97;29395;212;63009;-58
2023/10/16 01:57:47;;;;;;;0.60;0.60;;;;;;;3.36;96.12;97398.78;29395;212;63008;-58
2023/10/16 01:58:18;;;;;;;0.60;0.60;;;;;;;3.38;96.04;97401.25;29395;214;63016;-57
2023/10/16 01:58:52;;;;;;;0.60;0.60;;;;;;;3.39;95.78;97404.75;29395;201;63011;-59
2023/10/16 01:59:23;;;;;;;0.60;0.60;;;;;;;3.37;95.64;97397.75;29395;228;63024;-58
2023/10/16 01:59:55;;;;;;;0.60;0.60;;;;;;;3.34;95.51;97400.06;29395;215;63005;-58
2023/10/16 02:00:34;;;;;;;0.60;0.60;;;;;;;3.32;95.28;97400.31;29395;222;63009;-58
2023/10/16 02:01:05;;;;;;;0.60;0.60;;;;;;;3.32;95.19;97394.13;29394;199;64009;-57
2023/10/16 02:01:36;;;;;;;0.60;0.60;;;;;;;3.32;95.41;97394.94;29395;215;63009;-58
2023/10/16 02:02:09;;;;;;;0.60;0.60;;;;;;;3.34;95.43;97402.75;29395;253;63005;-57
2023/10/16 02:02:40;;;;;;;0.60;0.60;;;;;;;3.33;95.28;97393.87;29395;344;63009;-57
2023/10/16 02:03:12;;;;;;;0.60;0.60;;;;;;;3.33;95.44;97401.13;29395;224;63005;-58
2023/10/16 02:03:46;;;;;;;0.60;0.60;;;;;;;3.33;95.46;97398.44;29394;236;64013;-58
2023/10/16 02:04:19;;;;;;;0.60;0.60;;;;;;;3.34;95.44;97394.72;29395;241;63004;-57
2023/10/16 02:04:51;;;;;;;0.60;0.60;;;;;;;3.34;95.41;97400.88;29395;223;63009;-58
2023/10/16 02:05:22;;;;;;;0.60;0.60;;;;;;;3.35;95.46;97393.66;29395;197;63004;-57
2023/10/16 02:05:53;;;;;;;0.50;0.50;;;;;;;3.35;95.49;97394.47;29395;255;63009;-58
2023/10/16 02:06:26;;;;;;;0.60;0.60;;;;;;;3.34;95.56;97392.84;29395;306;63004;-58
2023/10/16 02:06:57;;;;;;;0.60;0.60;;;;;;;3.33;95.49;97391.22;29395;201;63008;-58
2023/10/16 02:07:33;;;;;;;1.20;1.20;;;;;;;3.32;95.78;97394.13;29395;293;63005;-58
2023/10/16 02:08:07;;;;;;;0.60;0.60;;;;;;;3.32;95.93;97394.94;29395;259;63009;-58
2023/10/16 02:08:39;;;;;;;0.60;0.60;;;;;;;3.32;95.71;97399.50;29395;244;63005;-58
2023/10/16 02:09:13;;;;;;;0.60;0.60;;;;;;;3.29;95.48;97392.72;29394;214;64013;-58
2023/10/16 02:09:47;;;;;;;0.60;0.60;;;;;;;3.29;95.62;97395.41;29395;202;63005;-57
2023/10/16 02:10:20;;;;;;;0.60;0.60;;;;;;;3.29;95.76;97394.59;29395;225;63009;-57
2023/10/16 02:10:52;;;;;;;0.52;0.52;;;;;;;3.29;95.49;97392.72;29395;222;63004;-59
2023/10/16 02:11:23;;;;;;;0.60;0.60;;;;;;;3.28;95.59;97392.97;29395;210;63009;-57
2023/10/16 02:11:54;;;;;;;0.60;0.60;;;;;;;3.27;95.93;97381.41;29395;228;63004;-58
2023/10/16 02:12:26;;;;;;;0.55;0.55;;;;;;;3.27;95.76;97392.13;29395;208;63009;-58
2023/10/16 02:12:58;;;;;;;0.60;0.60;;;;;;;3.25;95.64;97386.19;29395;312;63004;-58
2023/10/16 02:13:31;;;;;;;0.60;0.60;;;;;;;3.25;95.60;97388.88;29395;197;63008;-58
2023/10/16 02:14:05;;;;;;;0.60;0.60;;;;;;;3.25;95.58;97383.50;29394;273;64008;-58
2023/10/16 02:14:40;;;;;;;0.60;0.60;;;;;;;3.27;95.89;97385.97;29395;230;63008;-57
2023/10/16 02:15:14;;;;;;;0.60;0.60;;;;;;;3.26;96.32;97385.16;29395;226;63005;-58
2023/10/16 02:15:47;;;;;;;0.60;0.60;;;;;;;3.27;96.04;97381.41;29395;250;63009;-58
2023/10/16 02:16:20;;;;;;;0.60;0.60;;;;;;;3.26;96.20;97379.78;29395;200;63005;-57
2023/10/16 02:16:51;;;;;;;0.60;0.60;;;;;;;3.28;96.47;97383.03;29394;257;64013;-58
2023/10/16 02:17:23;;;;;;;0.60;0.60;;;;;;;3.28;96.04;97377.69;29395;211;63005;-58
2023/10/16 02:17:54;;;;;;;0.60;0.60;;;;;;;3.30;96.05;97385.50;29394;234;64013;-58
2023/10/16 02:18:27;;;;;;;0.60;0.60;;;;;;;3.32;96.38;97383.41;29395;232;63004;-57
2023/10/16 02:19:00;;;;;;;0.60;0.60;;;;;;;3.31;96.21;97376.41;29395;200;63009;-58
2023/10/16 02:19:34;;;;;;;0.50;0.50;;;;;;;3.29;96.23;97384.69;29395;207;63004;-58
2023/10/16 02:20:11;;;;;;;0.60;0.60;;;;;;;3.28;96.49;97377.69;29395;285;63009;-58
2023/10/16 02:20:45;;;;;;;0.60;0.60;;;;;;;3.27;96.76;97384.09;29394;198;64009;-57
2023/10/16 02:21:17;;;;;;;0.60;0.60;;;;;;;3.25;96.61;97371.97;29395;205;63008;-58
2023/10/16 02:21:50;;;;;;;0.60;0.60;;;;;;;3.25;96.51;97380.00;29395;273;63005;-59
2023/10/16 02:22:22;;;;;;;0.60;0.60;;;;;;;3.24;96.76;97381.88;29395;279;63027;-58
2023/10/16 02:22:53;;;;;;;0.60;0.60;;;;;;;3.20;96.61;97380.72;29395;209;63005;-58
2023/10/16 02:23:26;;;;;;;0.60;0.60;;;;;;;3.17;96.44;97377.69;29395;203;63009;-58
2023/10/16 02:24:03;;;;;;;0.60;0.60;;;;;;;3.16;96.72;97374.19;29394;205;64009;-58
2023/10/16 02:24:34;;;;;;;0.70;0.70;;;;;;;3.13;96.62;97374.66;29395;236;63009;-56
2023/10/16 02:25:11;;;;;;;0.60;0.60;;;;;;;3.11;96.63;97371.41;29395;229;63005;-58
2023/10/16 02:25:42;;;;;;;0.60;0.60;;;;;;;3.12;96.84;97381.06;29395;228;63009;-58
2023/10/16 02:26:18;;;;;;;0.60;0.60;;;;;;;3.13;96.75;97371.16;29395;211;63004;-58
2023/10/16 02:27:00;;;;;;;0.60;0.60;;;;;;;3.12;96.54;97375.69;29395;261;63009;-58
2023/10/16 02:27:31;;;;;;;0.68;0.68;;;;;;;3.13;96.52;97368.47;29395;199;63004;-58
2023/10/16 02:28:08;;;;;;;0.60;0.60;;;;;;;3.15;96.52;97371.72;29395;218;63009;-58
2023/10/16 02:28:46;;;;;;;0.60;0.60;;;;;;;3.16;96.87;97373.38;29395;239;63004;-58
2023/10/16 02:29:17;;;;;;;0.60;0.60;;;;;;;3.15;96.85;97369.88;29394;197;64014;-58
2023/10/16 02:29:51;;;;;;;0.60;0.60;;;;;;;3.14;96.87;97375.47;29395;257;63005;-58
2023/10/16 02:31:14;;;;;;;0.60;0.60;;;;;;;3.08;96.78;97377.22;29417;219;63005;-58
2023/10/16 02:31:50;;;;;;;0.60;0.60;;;;;;;3.06;96.79;97378.50;29395;240;63009;-59
2023/10/16 02:32:26;;;;;;;0.60;0.60;;;;;;;3.04;96.82;97381.44;29395;204;63000;-58
2023/10/16 02:33:55;;;;;;;0.60;0.60;;;;;;;2.98;97.08;97379.66;29417;228;63008;-58
2023/10/16 02:34:27;;;;;;;0.60;0.60;;;;;;;2.95;96.98;97382.81;29394;243;64013;-58
2023/10/16 02:34:58;;;;;;;0.60;0.60;;;;;;;2.91;96.81;97381.63;29394;290;64004;-58
2023/10/16 02:35:31;;;;;;;0.60;0.60;;;;;;;2.89;97.50;97383.75;29395;214;63009;-58
2023/10/16 02:36:03;;;;;;;0.60;0.60;;;;;;;2.89;97.72;97378.37;29395;221;63004;-58
2023/10/16 02:36:34;;;;;;;0.60;0.60;;;;;;;2.91;97.51;97381.63;29395;209;63008;-66
2023/10/16 02:37:06;;;;;;;0.60;0.60;;;;;;;2.92;97.43;97375.22;29394;237;64009;-57
2023/10/16 02:37:38;;;;;;;0.60;0.60;;;;;;;2.95;97.86;97372.09;29395;279;63009;-58
2023/10/16 02:38:14;;;;;;;0.50;0.50;;;;;;;2.95;97.82;97374.78;29395;224;63005;-57
2023/10/16 02:38:48;;;;;;;0.60;0.60;;;;;;;2.95;97.76;97372.91;29395;235;63009;-57
2023/10/16 02:39:38;;;;;;;0.60;0.60;;;;;;;2.95;97.31;97372.09;29395;265;63014;-58
2023/10/16 02:40:10;;;;;;;0.60;0.60;;;;;;;2.93;97.47;97366.16;29395;229;63009;-58
2023/10/16 02:40:50;;;;;;;0.60;0.60;;;;;;;2.93;97.77;97380.38;29395;200;63005;-58
2023/10/16 02:41:22;;;;;;;0.60;0.60;;;;;;;2.93;97.45;97372.31;29395;250;63009;-58
2023/10/16 02:41:55;;;;;;;0.60;0.60;;;;;;;2.93;97.46;97376.88;29395;203;63004;-58
2023/10/16 02:42:28;;;;;;;0.70;0.70;;;;;;;2.94;97.27;97375.81;29394;224;64013;-58
2023/10/16 02:43:04;;;;;;;0.60;0.60;;;;;;;2.94;97.55;97375.81;29395;204;63004;-58
2023/10/16 02:43:41;;;;;;;0.60;0.60;;;;;;;2.92;98.33;97376.06;29395;257;63008;-57
2023/10/16 02:44:12;;;;;;;0.65;0.65;;;;;;;2.91;97.88;97376.28;29395;217;63004;-58
2023/10/16 02:44:49;;;;;;;0.65;0.65;;;;;;;2.90;98.28;97380.00;29395;281;63009;-57
2023/10/16 02:45:25;;;;;;;0.60;0.60;;;;;;;2.88;98.43;97376.75;29395;202;63005;-58
2023/10/16 02:45:57;;;;;;;0.60;0.60;;;;;;;2.88;98.56;97376.75;29395;198;63016;-58
2023/10/16 02:46:28;;;;;;;0.65;0.65;;;;;;;2.87;98.13;97375.94;29395;222;63016;-57
2023/10/16 02:46:59;;;;;;;0.60;0.60;;;;;;;2.86;98.07;97373.47;29394;219;64013;-58